createdAt,value
2023-02-16T00:00:21.349Z,88.88
2023-02-16T00:02:48.365Z,72.95
2023-02-16T00:05:30.243Z,60.45
2023-02-16T00:07:57.755Z,52.65
2023-02-16T00:10:31.755Z,51.03
2023-02-16T00:13:16.863Z,49.08
2023-02-16T00:15:43.634Z,54.15
2023-02-16T00:18:21.973Z,48.90
2023-02-16T00:20:49.632Z,48.90
2023-02-16T00:23:16.472Z,49.05
2023-02-16T00:25:43.363Z,49.95
2023-02-16T00:28:28.218Z,47.28
2023-02-16T00:30:54.984Z,53.65
2023-02-16T00:33:22.123Z,48.30
2023-02-16T00:35:49.349Z,49.78
2023-02-16T00:38:16.085Z,50.33
2023-02-16T00:40:43.239Z,59.05
2023-02-16T00:43:23.095Z,53.97
2023-02-16T00:45:49.838Z,50.05
2023-02-16T00:48:16.506Z,40.88
2023-02-16T00:50:43.173Z,46.63
2023-02-16T00:53:11.657Z,45.05
2023-02-16T00:55:39.245Z,45.95
2023-02-16T00:58:13.985Z,43.10
2023-02-16T01:00:47.289Z,51.50
2023-02-16T01:03:17.129Z,50.80
2023-02-16T01:05:43.931Z,51.30
2023-02-16T01:08:34.732Z,53.03
2023-02-16T01:11:10.052Z,49.80
2023-02-16T01:13:44.824Z,55.08
2023-02-16T01:16:20.438Z,65.97
2023-02-16T01:18:47.473Z,65.25
2023-02-16T01:21:14.289Z,65.55
2023-02-16T01:23:41.223Z,67.45
2023-02-16T01:26:14.182Z,60.25
2023-02-16T01:28:40.874Z,57.28
2023-02-16T01:31:07.908Z,59.20
2023-02-16T01:33:34.648Z,58.13
2023-02-16T01:36:01.368Z,61.00
2023-02-16T01:38:29.234Z,62.92
2023-02-16T01:40:55.887Z,62.03
2023-02-16T01:43:26.575Z,65.68
2023-02-16T01:46:02.352Z,70.82
2023-02-16T01:48:31.300Z,57.50
2023-02-16T01:51:12.184Z,65.07
2023-02-16T01:54:16.511Z,65.72
2023-02-16T01:56:50.473Z,59.80
2023-02-16T01:59:44.918Z,53.53
2023-02-16T02:02:20.603Z,56.25
2023-02-16T02:05:12.542Z,54.78
2023-02-16T02:07:50.183Z,57.47
2023-02-16T02:10:28.872Z,62.35
2023-02-16T02:13:07.917Z,57.38
2023-02-16T02:15:34.865Z,71.85
2023-02-16T02:18:02.040Z,70.85
2023-02-16T02:21:07.829Z,65.15
2023-02-16T02:23:45.506Z,71.22
2023-02-16T02:26:49.456Z,63.70
2023-02-16T02:29:51.199Z,72.57
2023-02-16T02:32:50.380Z,71.55
2023-02-16T02:35:41.680Z,80.00
2023-02-16T02:38:17.749Z,74.18
2023-02-16T02:41:58.517Z,81.20
2023-02-16T02:44:27.353Z,69.05
2023-02-16T02:46:54.040Z,75.60
2023-02-16T02:49:20.752Z,70.93
2023-02-16T02:51:47.893Z,64.35
2023-02-16T02:54:38.449Z,70.03
2023-02-16T02:57:40.424Z,95.13
2023-02-16T03:00:33.149Z,85.25
2023-02-16T03:03:19.980Z,85.55
2023-02-16T03:05:54.913Z,78.35
2023-02-16T03:08:25.678Z,79.47
2023-02-16T03:11:16.043Z,78.13
2023-02-16T03:13:46.352Z,86.82
2023-02-16T03:16:15.093Z,76.85
2023-02-16T03:19:00.881Z,72.78
2023-02-16T03:21:47.097Z,79.47
2023-02-16T03:24:42.605Z,66.60
2023-02-16T03:27:27.993Z,72.55
2023-02-16T03:29:55.497Z,76.50
2023-02-16T03:32:22.210Z,76.68
2023-02-16T03:34:48.949Z,82.22
2023-02-16T03:37:15.839Z,79.55
2023-02-16T03:40:01.435Z,90.47
2023-02-16T03:42:28.148Z,87.55
2023-02-16T03:44:54.891Z,96.13
2023-02-16T03:47:21.620Z,94.65
2023-02-16T03:49:48.685Z,92.40
2023-02-16T03:52:15.342Z,94.78
2023-02-16T03:54:42.050Z,105.75
2023-02-16T03:57:08.716Z,95.88
2023-02-16T03:59:35.403Z,91.10
2023-02-16T04:02:02.316Z,98.68
2023-02-16T04:04:29.060Z,98.22
2023-02-16T04:06:55.796Z,84.38
2023-02-16T04:09:22.545Z,87.32
2023-02-16T04:12:07.585Z,145.57
2023-02-16T04:14:34.258Z,85.10
2023-02-16T04:17:01.061Z,87.95
2023-02-16T04:19:27.982Z,85.50
2023-02-16T04:21:54.750Z,82.13
2023-02-16T04:24:21.568Z,82.35
2023-02-16T04:26:49.567Z,85.70
2023-02-16T04:29:16.535Z,83.68
2023-02-16T04:31:43.406Z,78.25
2023-02-16T04:34:10.214Z,83.43
2023-02-16T04:36:36.896Z,82.57
2023-02-16T04:39:04.009Z,89.03
2023-02-16T04:41:30.717Z,80.95
2023-02-16T04:43:57.434Z,89.18
2023-02-16T04:46:24.417Z,84.80
2023-02-16T04:48:51.241Z,87.35
2023-02-16T04:51:17.972Z,83.05
2023-02-16T04:53:44.727Z,89.13
2023-02-16T04:56:12.535Z,92.10
2023-02-16T04:58:39.659Z,90.70
2023-02-16T05:01:06.779Z,93.68
2023-02-16T05:03:34.005Z,106.30
2023-02-16T05:06:00.909Z,96.65
2023-02-16T05:08:27.731Z,108.10
2023-02-16T05:11:12.937Z,95.30
2023-02-16T05:13:58.439Z,88.38
2023-02-16T05:16:25.135Z,80.38
2023-02-16T05:18:51.837Z,88.93
2023-02-16T05:21:35.288Z,77.57
2023-02-16T05:24:04.382Z,77.22
2023-02-16T05:26:31.635Z,80.00
2023-02-16T05:28:58.434Z,130.05
2023-02-16T05:31:25.885Z,102.53
2023-02-16T05:33:53.145Z,101.70
2023-02-16T05:36:19.805Z,94.25
2023-02-16T05:38:46.433Z,96.05
2023-02-16T05:41:23.374Z,101.50
2023-02-16T05:43:54.542Z,86.18
2023-02-16T05:46:24.853Z,84.40
2023-02-16T05:48:51.811Z,89.45
2023-02-16T05:51:18.878Z,92.93
2023-02-16T05:53:45.680Z,92.93
2023-02-16T05:56:12.668Z,78.30
2023-02-16T05:58:39.438Z,71.95
2023-02-16T06:01:06.342Z,74.00
2023-02-16T06:03:33.544Z,79.15
2023-02-16T06:06:01.830Z,80.45
2023-02-16T06:08:29.326Z,68.65
2023-02-16T06:10:56.010Z,64.00
2023-02-16T06:13:23.859Z,69.78
2023-02-16T06:15:55.943Z,78.85
2023-02-16T06:18:23.937Z,79.47
2023-02-16T06:20:51.065Z,71.90
2023-02-16T06:23:18.133Z,73.00
2023-02-16T06:25:48.739Z,82.88
2023-02-16T06:28:15.443Z,82.20
2023-02-16T06:30:42.758Z,80.05
2023-02-16T06:33:09.685Z,74.38
2023-02-16T06:35:36.350Z,71.10
2023-02-16T06:38:03.032Z,70.15
2023-02-16T06:40:29.741Z,88.07
2023-02-16T06:42:56.388Z,63.28
2023-02-16T06:45:23.045Z,65.35
2023-02-16T06:47:49.717Z,63.42
2023-02-16T06:50:17.785Z,76.18
2023-02-16T06:52:44.491Z,79.85
2023-02-16T06:55:11.226Z,79.63
2023-02-16T06:57:37.876Z,91.85
2023-02-16T07:00:07.527Z,69.10
2023-02-16T07:02:35.705Z,55.13
2023-02-16T07:05:03.367Z,64.78
2023-02-16T07:07:31.240Z,62.00
2023-02-16T07:09:58.369Z,65.03
2023-02-16T07:12:25.100Z,64.75
2023-02-16T07:14:51.778Z,76.10
2023-02-16T07:17:18.468Z,61.15
2023-02-16T07:19:45.143Z,60.72
2023-02-16T07:22:11.940Z,84.85
2023-02-16T07:24:38.578Z,60.20
2023-02-16T07:27:05.770Z,72.35
2023-02-16T07:29:32.451Z,59.88
2023-02-16T07:31:59.283Z,56.05
2023-02-16T07:34:26.083Z,61.70
2023-02-16T07:36:52.841Z,64.45
2023-02-16T07:39:19.811Z,62.85
2023-02-16T07:41:46.579Z,65.57
2023-02-16T07:44:13.275Z,59.53
2023-02-16T07:46:39.980Z,69.47
2023-02-16T07:49:06.635Z,80.80
2023-02-16T07:51:33.317Z,60.50
2023-02-16T07:54:00.602Z,56.10
2023-02-16T07:56:30.569Z,52.25
2023-02-16T07:58:58.644Z,54.55
2023-02-16T08:01:26.387Z,61.50
2023-02-16T08:03:53.381Z,67.22
2023-02-16T08:06:20.786Z,57.53
2023-02-16T08:08:47.581Z,58.92
2023-02-16T08:11:19.908Z,53.30
2023-02-16T08:13:46.909Z,45.78
2023-02-16T08:16:19.288Z,52.42
2023-02-16T08:18:46.067Z,48.40
2023-02-16T08:21:16.750Z,45.03
2023-02-16T08:23:52.312Z,49.25
2023-02-16T08:28:47.699Z,45.40
2023-02-16T08:31:15.600Z,42.63
2023-02-16T08:33:42.446Z,41.88
2023-02-16T08:36:19.207Z,40.85
2023-02-16T08:38:46.171Z,56.83
2023-02-16T08:41:12.827Z,54.08
2023-02-16T08:43:39.502Z,46.38
2023-02-16T08:46:08.192Z,37.00
2023-02-16T08:48:35.678Z,44.60
2023-02-16T08:51:04.121Z,44.42
2023-02-16T08:53:33.398Z,44.25
2023-02-16T08:58:27.151Z,46.53
2023-02-16T09:00:53.920Z,40.33
2023-02-16T09:03:20.756Z,44.33
2023-02-16T09:05:48.461Z,46.80
2023-02-16T09:08:15.868Z,46.05
2023-02-16T09:10:43.276Z,43.75
2023-02-16T09:13:16.379Z,42.47
2023-02-16T09:15:44.224Z,46.95
2023-02-16T09:18:12.754Z,29.80
2023-02-16T09:20:41.439Z,35.72
2023-02-16T09:23:09.227Z,37.42
2023-02-16T09:25:38.112Z,42.13
2023-02-16T09:28:06.473Z,39.72
2023-02-16T09:30:34.818Z,42.97
2023-02-16T09:33:02.196Z,36.65
2023-02-16T09:35:28.826Z,36.78
2023-02-16T09:37:55.606Z,36.67
2023-02-16T09:40:22.700Z,30.25
2023-02-16T09:43:09.101Z,25.45
2023-02-16T09:45:44.952Z,27.58
2023-02-16T09:48:33.318Z,29.20
2023-02-16T09:51:00.961Z,29.98
2023-02-16T09:53:47.771Z,23.95
2023-02-16T09:56:32.891Z,23.55
2023-02-16T09:59:18.598Z,27.75
2023-02-16T10:01:58.101Z,23.65
2023-02-16T10:04:44.213Z,27.63
2023-02-16T10:07:35.753Z,26.33
2023-02-16T10:10:03.686Z,26.52
2023-02-16T10:12:38.363Z,29.55
2023-02-16T10:15:14.726Z,22.45
2023-02-16T10:17:52.642Z,27.48
2023-02-16T10:20:52.544Z,25.98
2023-02-16T10:23:40.563Z,23.25
2023-02-16T10:26:13.732Z,24.35
2023-02-16T10:28:47.509Z,26.70
2023-02-16T10:31:25.474Z,30.00
2023-02-16T10:33:55.170Z,33.03
2023-02-16T10:36:31.109Z,27.58
2023-02-16T10:39:18.293Z,28.02
2023-02-16T10:41:48.653Z,30.65
2023-02-16T10:44:16.490Z,28.63
2023-02-16T10:46:47.218Z,25.70
2023-02-16T10:49:15.491Z,26.52
2023-02-16T10:51:48.415Z,24.27
2023-02-16T10:54:29.797Z,29.98
2023-02-16T10:57:01.105Z,30.25
2023-02-16T10:59:47.279Z,28.35
2023-02-16T11:02:39.106Z,29.77
2023-02-16T11:05:32.627Z,25.70
2023-02-16T11:08:01.810Z,26.95
2023-02-16T11:10:50.939Z,25.27
2023-02-16T11:13:35.384Z,27.23
2023-02-16T11:16:10.455Z,27.70
2023-02-16T11:18:41.783Z,19.52
2023-02-16T11:21:10.069Z,27.15
2023-02-16T11:23:37.942Z,30.77
2023-02-16T11:26:10.461Z,31.38
2023-02-16T11:28:37.248Z,25.75
2023-02-16T11:31:09.794Z,28.20
2023-02-16T11:33:40.318Z,27.10
2023-02-16T11:36:37.429Z,29.02
2023-02-16T11:39:18.016Z,25.35
2023-02-16T11:42:18.716Z,33.40
2023-02-16T11:44:54.334Z,27.00
2023-02-16T11:47:23.348Z,23.15
2023-02-16T11:50:06.733Z,26.95
2023-02-16T11:52:33.472Z,21.63
2023-02-16T11:55:02.289Z,23.85
2023-02-16T11:57:37.439Z,26.35
2023-02-16T12:00:16.273Z,29.83
2023-02-16T12:03:22.245Z,28.33
2023-02-16T12:05:54.733Z,29.33
2023-02-16T12:08:45.521Z,29.00
2023-02-16T12:11:34.733Z,27.48
2023-02-16T12:14:04.766Z,30.90
2023-02-16T12:16:48.915Z,25.20
2023-02-16T12:19:54.452Z,27.73
2023-02-16T12:22:51.669Z,27.70
2023-02-16T12:25:42.499Z,35.33
2023-02-16T12:28:26.020Z,27.92
2023-02-16T12:31:07.708Z,31.92
2023-02-16T12:36:27.353Z,34.22
2023-02-16T12:39:12.305Z,29.98
2023-02-16T12:41:56.596Z,31.65
2023-02-16T12:44:42.098Z,33.88
2023-02-16T12:47:14.710Z,32.83
2023-02-16T12:49:52.821Z,34.67
2023-02-16T12:52:38.203Z,30.33
2023-02-16T12:55:27.601Z,29.67
2023-02-16T12:58:04.388Z,27.00
2023-02-16T13:00:37.183Z,34.60
2023-02-16T13:03:34.106Z,35.25
2023-02-16T13:06:07.280Z,30.90
2023-02-16T13:08:39.898Z,31.30
2023-02-16T13:11:25.875Z,26.73
2023-02-16T13:13:53.827Z,30.63
2023-02-16T13:16:36.909Z,28.33
2023-02-16T13:19:03.833Z,28.90
2023-02-16T13:21:51.380Z,28.33
2023-02-16T13:24:40.316Z,30.55
2023-02-16T13:27:48.680Z,29.38
2023-02-16T13:30:36.870Z,28.17
2023-02-16T13:33:39.267Z,26.83
2023-02-16T13:36:19.910Z,31.92
2023-02-16T13:39:01.502Z,37.38
2023-02-16T13:44:00.930Z,25.10
2023-02-16T13:46:33.089Z,29.65
2023-02-16T13:49:00.961Z,30.92
2023-02-16T13:51:31.029Z,40.70
2023-02-16T13:54:02.692Z,32.90
2023-02-16T13:56:29.487Z,31.02
2023-02-16T13:58:58.200Z,41.20
2023-02-16T14:01:44.169Z,34.03
2023-02-16T14:04:33.794Z,26.73
2023-02-16T14:07:03.489Z,29.48
2023-02-16T14:09:31.268Z,26.25
2023-02-16T14:11:59.493Z,26.52
2023-02-16T14:14:35.113Z,29.90
2023-02-16T14:17:19.888Z,28.65
2023-02-16T14:19:58.932Z,32.20
2023-02-16T14:22:43.557Z,27.70
2023-02-16T14:25:27.261Z,31.90
2023-02-16T14:28:03.091Z,32.72
2023-02-16T14:30:50.338Z,31.30
2023-02-16T14:33:22.505Z,34.83
2023-02-16T14:36:01.087Z,33.38
2023-02-16T14:38:28.328Z,26.60
2023-02-16T14:41:00.160Z,33.78
2023-02-16T14:43:46.082Z,30.98
2023-02-16T14:46:18.654Z,33.70
2023-02-16T14:49:13.133Z,33.33
2023-02-16T14:52:35.982Z,33.15
2023-02-16T14:55:21.148Z,28.80
2023-02-16T14:57:53.700Z,33.55
2023-02-16T15:00:45.974Z,29.35
2023-02-16T15:03:21.661Z,44.28
2023-02-16T15:05:58.019Z,38.95
2023-02-16T15:08:35.756Z,32.63
2023-02-16T15:11:15.915Z,29.50
2023-02-16T15:13:43.980Z,37.33
2023-02-16T15:16:15.533Z,43.33
2023-02-16T15:18:50.974Z,41.70
2023-02-16T15:21:25.023Z,34.53
2023-02-16T15:23:54.342Z,36.15
2023-02-16T15:26:24.742Z,43.13
2023-02-16T15:28:54.925Z,38.38
2023-02-16T15:31:27.419Z,37.50
2023-02-16T15:33:59.552Z,42.65
2023-02-16T15:36:38.451Z,37.28
2023-02-16T15:39:08.380Z,39.28
2023-02-16T15:41:38.379Z,46.50
2023-02-16T15:44:06.946Z,37.17
2023-02-16T15:46:39.744Z,38.35
2023-02-16T15:49:22.443Z,37.67
2023-02-16T15:51:49.402Z,39.63
2023-02-16T15:54:27.684Z,44.63
2023-02-16T15:56:59.778Z,44.58
2023-02-16T15:59:48.168Z,40.17
2023-02-16T16:02:33.423Z,51.20
2023-02-16T16:05:03.278Z,36.33
2023-02-16T16:07:32.218Z,44.30
2023-02-16T16:09:59.774Z,34.33
2023-02-16T16:12:27.155Z,48.92
2023-02-16T16:14:57.081Z,31.83
2023-02-16T16:17:29.934Z,37.45
2023-02-16T16:19:58.187Z,46.53
2023-02-16T16:22:27.635Z,41.45
2023-02-16T16:24:54.308Z,38.85
2023-02-16T16:27:36.048Z,44.30
2023-02-16T16:32:38.720Z,41.72
2023-02-16T16:35:40.952Z,32.33
2023-02-16T16:38:27.510Z,35.72
2023-02-16T16:40:57.035Z,31.52
2023-02-16T16:43:35.728Z,39.47
2023-02-16T16:46:08.546Z,34.97
2023-02-16T16:48:36.530Z,38.80
2023-02-16T16:51:34.585Z,35.15
2023-02-16T16:54:04.251Z,38.63
2023-02-16T16:56:36.402Z,33.65
2023-02-16T16:59:04.313Z,34.67
2023-02-16T17:01:31.700Z,33.63
2023-02-16T17:03:58.964Z,34.75
2023-02-16T17:06:26.289Z,37.95
2023-02-16T17:08:55.243Z,37.60
2023-02-16T17:11:27.938Z,48.72
2023-02-16T17:13:55.758Z,51.92
2023-02-16T17:16:31.562Z,39.58
2023-02-16T17:18:58.443Z,55.70
2023-02-16T17:21:25.238Z,61.33
2023-02-16T17:23:53.313Z,46.15
2023-02-16T17:26:21.549Z,45.67
2023-02-16T17:28:48.414Z,53.38
2023-02-16T17:31:15.273Z,46.03
2023-02-16T17:33:42.031Z,49.22
2023-02-16T17:36:09.032Z,50.95
2023-02-16T17:38:35.727Z,51.50
2023-02-16T17:41:02.504Z,45.90
2023-02-16T17:43:29.178Z,59.22
2023-02-16T17:45:56.736Z,48.65
2023-02-16T17:48:29.350Z,55.80
2023-02-16T17:50:59.175Z,60.80
2023-02-16T17:53:26.993Z,54.10
2023-02-16T17:55:55.384Z,53.85
2023-02-16T17:58:25.269Z,54.03
2023-02-16T18:00:52.072Z,62.30
2023-02-16T18:03:19.026Z,62.25
2023-02-16T18:05:46.794Z,70.90
2023-02-16T18:08:13.513Z,68.28
2023-02-16T18:10:49.738Z,51.45
2023-02-16T18:13:17.107Z,56.38
2023-02-16T18:15:47.482Z,57.38
2023-02-16T18:18:16.247Z,72.38
2023-02-16T18:20:43.508Z,52.03
2023-02-16T18:23:10.333Z,53.03
2023-02-16T18:25:37.365Z,59.80
2023-02-16T18:28:04.198Z,52.50
2023-02-16T18:30:31.253Z,47.38
2023-02-16T18:32:58.193Z,60.15
2023-02-16T18:35:24.847Z,32.97
2023-02-16T18:37:51.680Z,57.42
2023-02-16T18:40:20.043Z,64.43
2023-02-16T18:42:47.908Z,39.92
2023-02-16T18:45:14.667Z,39.15
2023-02-16T18:47:42.690Z,71.97
2023-02-16T18:50:09.814Z,59.33
2023-02-16T18:52:36.502Z,51.22
2023-02-16T18:55:04.119Z,31.88
2023-02-16T18:57:32.518Z,51.70
2023-02-16T18:59:59.507Z,29.50
2023-02-16T19:02:26.470Z,45.42
2023-02-16T19:04:53.208Z,65.00
2023-02-16T19:07:19.946Z,38.35
2023-02-16T19:09:46.590Z,58.70
2023-02-16T19:12:13.444Z,34.15
2023-02-16T19:14:40.184Z,38.83
2023-02-16T19:17:06.881Z,79.70
2023-02-16T19:19:34.343Z,67.25
2023-02-16T19:22:00.988Z,53.03
2023-02-16T19:24:27.758Z,48.72
2023-02-16T19:26:54.674Z,47.17
2023-02-16T19:29:21.298Z,65.18
2023-02-16T19:31:48.084Z,27.45
2023-02-16T19:34:15.254Z,54.03
2023-02-16T19:36:41.975Z,48.40
2023-02-16T19:39:08.873Z,38.65
2023-02-16T19:41:38.398Z,29.20
2023-02-16T19:44:05.512Z,36.83
2023-02-16T19:46:33.000Z,31.98
2023-02-16T19:48:59.743Z,46.92
2023-02-16T19:51:26.848Z,38.50
2023-02-16T19:53:53.959Z,38.88
2023-02-16T19:56:23.434Z,38.17
2023-02-16T20:01:27.241Z,69.75
2023-02-16T20:03:54.704Z,37.63
2023-02-16T20:06:33.221Z,52.67
2023-02-16T20:09:00.889Z,48.17
2023-02-16T20:11:28.731Z,39.50
2023-02-16T20:13:56.268Z,35.63
2023-02-16T20:16:23.834Z,37.05
2023-02-16T20:18:51.215Z,57.38
2023-02-16T20:21:20.370Z,24.23
2023-02-16T20:23:48.881Z,26.30
2023-02-16T20:26:20.607Z,26.45
2023-02-16T20:28:48.698Z,26.77
2023-02-16T20:31:22.646Z,35.95
2023-02-16T20:33:49.726Z,45.78
2023-02-16T20:36:17.620Z,34.72
2023-02-16T20:38:44.960Z,55.92
2023-02-16T20:41:12.178Z,52.40
2023-02-16T20:43:39.481Z,61.05
2023-02-16T20:46:07.403Z,50.30
2023-02-16T20:48:34.918Z,49.63
2023-02-16T20:51:03.811Z,47.05
2023-02-16T20:53:30.698Z,61.45
2023-02-16T20:56:08.218Z,47.40
2023-02-16T20:58:35.992Z,36.72
2023-02-16T21:01:03.056Z,29.23
2023-02-16T21:03:29.874Z,26.55
2023-02-16T21:05:56.555Z,25.38
2023-02-16T21:08:23.185Z,37.47
2023-02-16T21:10:49.808Z,31.63
2023-02-16T21:13:16.481Z,29.10
2023-02-16T21:15:43.199Z,46.47
2023-02-16T21:18:10.762Z,43.67
2023-02-16T21:20:37.513Z,36.42
2023-02-16T21:23:04.396Z,41.83
2023-02-16T21:25:31.286Z,52.22
2023-02-16T21:27:58.048Z,36.15
2023-02-16T21:30:24.896Z,46.75
2023-02-16T21:32:51.984Z,40.30
2023-02-16T21:35:18.765Z,53.05
2023-02-16T21:37:45.505Z,52.88
2023-02-16T21:40:32.063Z,42.22
2023-02-16T21:42:58.954Z,38.05
2023-02-16T21:45:25.752Z,68.57
2023-02-16T21:48:10.962Z,71.20
2023-02-16T21:50:40.419Z,78.80
2023-02-16T21:55:55.257Z,80.03
2023-02-16T21:58:22.282Z,63.00
2023-02-16T22:00:52.566Z,71.55
2023-02-16T22:03:20.464Z,53.85
2023-02-16T22:05:47.193Z,49.22
2023-02-16T22:08:14.539Z,48.33
2023-02-16T22:10:41.415Z,52.20
2023-02-16T22:13:08.564Z,43.78
2023-02-16T22:15:37.105Z,73.40
2023-02-16T22:18:06.673Z,59.33
2023-02-16T22:20:33.836Z,81.78
2023-02-16T22:23:00.488Z,77.43
2023-02-16T22:25:27.202Z,73.28
2023-02-16T22:27:53.909Z,75.35
2023-02-16T22:30:20.760Z,70.82
2023-02-16T22:32:49.428Z,75.68
2023-02-16T22:35:16.087Z,79.60
2023-02-16T22:37:42.822Z,77.18
2023-02-16T22:40:10.011Z,87.68
2023-02-16T22:42:36.698Z,90.35
2023-02-16T22:45:03.947Z,81.95
2023-02-16T22:47:31.413Z,85.20
2023-02-16T22:49:58.056Z,98.32
2023-02-16T22:52:24.757Z,101.65
2023-02-16T22:54:54.435Z,104.72
2023-02-16T22:57:21.111Z,102.25
2023-02-16T22:59:47.781Z,99.35
2023-02-16T23:02:14.615Z,96.78
2023-02-16T23:04:43.283Z,90.93
2023-02-16T23:07:10.180Z,75.25
2023-02-16T23:09:36.966Z,77.72
2023-02-16T23:12:03.866Z,95.30
2023-02-16T23:14:30.627Z,89.13
2023-02-16T23:16:57.439Z,93.55
2023-02-16T23:19:26.031Z,90.70
2023-02-16T23:21:53.341Z,93.97
2023-02-16T23:24:23.118Z,87.78
2023-02-16T23:26:50.048Z,91.40
2023-02-16T23:29:17.373Z,87.18
2023-02-16T23:31:46.785Z,89.10
2023-02-16T23:34:14.487Z,78.50
2023-02-16T23:36:41.520Z,76.82
2023-02-16T23:39:11.955Z,70.05
2023-02-16T23:41:39.261Z,75.38
2023-02-16T23:44:07.164Z,71.50
2023-02-16T23:46:34.217Z,75.85
2023-02-16T23:49:00.950Z,79.28
2023-02-16T23:51:28.130Z,71.85
2023-02-16T23:53:54.834Z,70.97
2023-02-16T23:56:27.166Z,66.53
2023-02-16T23:58:57.446Z,76.40
